Thunder radar more information blitzortung!


Radar de pluja more information rain snow radar


Visita la nostra xarxa de llocs de meteo:

Template documentation
and downloads

And another site



No particular awareness of the weather is required.    There are no Weather-warnings

Pagina Historial Weather Underground text

Diari Resum Octubre 16, 2017 Unitats:  Imperial    Mètric   Tant
« Previous Dia
SegĂźent Dia »
Diari Setmana Mensual Anual Personalitzada
  Maxima: Minima: Media:
Temperatura: 77.2 °F 58.1 °F 66 °F
Punt de rosada: 62.6 °F 54 °F 57.7 °F
Humitat: 94 % 55 % 76 %
Wind Speed: 9.2 mph 0 mph 1.9 mph
RĂ fegues de vent: 9.2 mph - -
Vent:- - SSE
Pression baro: 30.4 in 30.2 in -
Precipitacions: 0 in    
Historical Graphs
 
 
Dades de taula per Octubre 16, 2017
Temps Temperatura Punt de rosada Pression baro Vent Wind Speed RĂ fegues de vent Humitat Rainfall Rate (Hourly)
00:00 64.6 °F 59 °F 30.3 in Calm     82 % 0 in
00:05 64.4 °F 58.8 °F 30.3 in Calm     82 % 0 in
00:10 64.4 °F 58.8 °F 30.3 in Calm     82 % 0 in
00:15 64.2 °F 58.8 °F 30.3 in Calm     83 % 0 in
00:20 64.2 °F 58.8 °F 30.3 in Calm     83 % 0 in
00:25 64 °F 58.8 °F 30.3 in Calm     83 % 0 in
00:30 64 °F 58.8 °F 30.3 in Calm     83 % 0 in
00:35 64 °F 58.8 °F 30.3 in Calm     83 % 0 in
00:40 63.9 °F 58.6 °F 30.3 in Calm     83 % 0 in
00:45 63.9 °F 58.8 °F 30.3 in Calm     84 % 0 in
00:50 63.7 °F 58.8 °F 30.3 in Calm     84 % 0 in
00:55 63.7 °F 58.8 °F 30.3 in ENE 2.3 mph 2.3 mph 84 % 0 in
01:00 63.7 °F 58.8 °F 30.3 in Calm     84 % 0 in
01:05 63.5 °F 58.6 °F 30.3 in SW 2.3 mph 2.3 mph 84 % 0 in
01:10 63.3 °F 58.5 °F 30.3 in SW 2.3 mph 2.3 mph 84 % 0 in
01:15 63.1 °F 58.3 °F 30.3 in SW 1.2 mph 1.4 mph 84 % 0 in
01:20 63.1 °F 58.3 °F 30.3 in Calm     84 % 0 in
01:25 63.1 °F 58.6 °F 30.3 in Calm     85 % 0 in
01:30 63.1 °F 58.6 °F 30.3 in Calm     85 % 0 in
01:35 63.1 °F 58.6 °F 30.3 in SW 2.3 mph 2.3 mph 85 % 0 in
01:40 63.1 °F 58.6 °F 30.3 in SW 1.2 mph 1.2 mph 85 % 0 in
01:45 63.1 °F 58.8 °F 30.3 in Calm     86 % 0 in
01:50 63.1 °F 58.8 °F 30.3 in Calm     86 % 0 in
01:55 63 °F 58.6 °F 30.3 in Calm     86 % 0 in
02:00 63 °F 58.6 °F 30.3 in Calm     86 % 0 in
02:05 63 °F 58.6 °F 30.3 in WNW 1.2 mph 1.2 mph 86 % 0 in
02:10 62.8 °F 58.5 °F 30.3 in NE 2.3 mph 2.3 mph 86 % 0 in
02:15 62.8 °F 58.5 °F 30.3 in NE 2.3 mph 2.3 mph 86 % 0 in
02:20 62.6 °F 58.5 °F 30.3 in NNE 1.2 mph   86 % 0 in
02:25 62.6 °F 58.5 °F 30.3 in NE 2.3 mph 2.3 mph 86 % 0 in
02:30 62.4 °F 58.5 °F 30.3 in NNE 1.2 mph 1.2 mph 87 % 0 in
02:35 62.2 °F 58.3 °F 30.3 in Calm     87 % 0 in
02:40 62.1 °F 57.7 °F 30.3 in Calm     86 % 0 in
02:45 61.9 °F 57.6 °F 30.3 in WNW 2.3 mph 2.3 mph 86 % 0 in
02:50 61.9 °F 57.9 °F 30.3 in Calm     87 % 0 in
02:55 61.7 °F 57.7 °F 30.3 in Calm     87 % 0 in
03:00 61.7 °F 57.7 °F 30.3 in Calm     87 % 0 in
03:05 61.5 °F 57.6 °F 30.3 in Calm     87 % 0 in
03:10 61.5 °F 57.6 °F 30.3 in Calm     87 % 0 in
03:15 61.3 °F 57.7 °F 30.3 in Calm     88 % 0 in
03:20 61.3 °F 57.7 °F 30.3 in Calm     88 % 0 in
03:25 61.3 °F 57.7 °F 30.3 in Calm     88 % 0 in
03:30 61.2 °F 57.6 °F 30.3 in Calm     88 % 0 in
03:35 61.2 °F 57.6 °F 30.3 in Calm     88 % 0 in
03:40 61.2 °F 57.6 °F 30.3 in Calm     88 % 0 in
03:45 61 °F 57.4 °F 30.3 in Calm     88 % 0 in
03:50 61 °F 57.4 °F 30.3 in Calm     88 % 0 in
03:55 60.8 °F 57.2 °F 30.3 in Calm     88 % 0 in
04:00 60.6 °F 57 °F 30.3 in Calm     88 % 0 in
04:05 60.6 °F 57.4 °F 30.3 in Calm     89 % 0 in
04:10 60.6 °F 57.4 °F 30.3 in Calm     89 % 0 in
04:15 60.4 °F 57.2 °F 30.3 in Calm     89 % 0 in
04:20 60.4 °F 57.2 °F 30.3 in Calm     89 % 0 in
04:25 60.4 °F 57.2 °F 30.3 in Calm     89 % 0 in
04:30 60.3 °F 57 °F 30.3 in Calm     89 % 0 in
04:35 60.3 °F 57 °F 30.3 in Calm     89 % 0 in
04:40 60.1 °F 56.8 °F 30.3 in Calm     89 % 0 in
04:45 59.7 °F 56.5 °F 30.3 in West 2 mph   89 % 0 in
04:50 59.5 °F 55.9 °F 30.3 in West 2.3 mph 2.3 mph 88 % 0 in
04:55 59.7 °F 56.5 °F 30.3 in West 1.2 mph   89 % 0 in
05:00 59.5 °F 56.3 °F 30.3 in Calm     89 % 0 in
05:05 59.5 °F 56.7 °F 30.3 in Calm     90 % 0 in
05:10 59.5 °F 56.7 °F 30.3 in Calm     90 % 0 in
05:15 59.5 °F 56.7 °F 30.3 in Calm     90 % 0 in
05:20 59.7 °F 56.8 °F 30.3 in Calm     90 % 0 in
05:25 59.9 °F 57 °F 30.3 in West 1.4 mph 1.4 mph 90 % 0 in
05:30 60.1 °F 57 °F 30.3 in West 1.2 mph   90 % 0 in
05:35 59.9 °F 57.4 °F 30.3 in Calm     91 % 0 in
05:40 59.9 °F 57.4 °F 30.3 in Calm     91 % 0 in
05:45 60.1 °F 57.4 °F 30.3 in Calm     91 % 0 in
05:50 60.1 °F 57.4 °F 30.3 in Calm     91 % 0 in
05:55 60.1 °F 57.4 °F 30.3 in Calm     91 % 0 in
06:00 59.9 °F 57.4 °F 30.3 in Calm     91 % 0 in
06:05 59.7 °F 57 °F 30.3 in Calm     91 % 0 in
06:10 59.7 °F 57 °F 30.3 in Calm     91 % 0 in
06:15 59.7 °F 57 °F 30.3 in NW 1.2 mph   91 % 0 in
06:20 59.7 °F 57 °F 30.3 in Calm     91 % 0 in
06:22 59.7 °F 57 °F 30.3 in Calm     91 % 0 in
06:27 59.4 °F 56.7 °F 30.3 in Calm     91 % 0 in
06:32 59 °F 56.5 °F 30.3 in West 2.3 mph 2.3 mph 91 % 0 in
06:37 58.6 °F 55.8 °F 30.3 in Calm     90 % 0 in
06:42 58.8 °F 55.9 °F 30.3 in Calm     90 % 0 in
06:47 58.8 °F 56.1 °F 30.3 in Calm     91 % 0 in
06:52 58.8 °F 56.1 °F 30.3 in West 2.3 mph 2.3 mph 91 % 0 in
06:57 58.8 °F 56.1 °F 30.3 in West 1.2 mph 1.2 mph 91 % 0 in
07:02 59 °F 56.5 °F 30.3 in Calm     91 % 0 in
07:07 59 °F 56.7 °F 30.3 in Calm     92 % 0 in
07:12 59 °F 56.7 °F 30.3 in SW 1.2 mph   92 % 0 in
07:17 58.6 °F 56.3 °F 30.3 in Calm     92 % 0 in
07:22 58.5 °F 55.8 °F 30.3 in Calm     91 % 0 in
07:27 58.5 °F 55.8 °F 30.3 in Calm     91 % 0 in
07:32 58.3 °F 55.8 °F 30.3 in Calm     91 % 0 in
07:37 58.3 °F 55.8 °F 30.3 in Calm     91 % 0 in
07:42 58.3 °F 55.8 °F 30.3 in Calm     91 % 0 in
07:47 58.1 °F 55.6 °F 30.3 in Calm     91 % 0 in
07:52 58.1 °F 55.6 °F 30.3 in Calm     91 % 0 in
07:57 58.3 °F 55.8 °F 30.3 in Calm     91 % 0 in
08:02 58.5 °F 56.1 °F 30.3 in Calm     92 % 0 in
08:07 58.6 °F 56.3 °F 30.3 in Calm     92 % 0 in
08:12 58.6 °F 56.3 °F 30.3 in Calm     92 % 0 in
08:17 58.5 °F 56.1 °F 30.3 in Calm     92 % 0 in
08:22 58.5 °F 56.1 °F 30.3 in Calm     92 % 0 in
08:27 58.6 °F 56.7 °F 30.3 in Calm     93 % 0 in
08:32 58.8 °F 56.8 °F 30.3 in Calm     93 % 0 in
08:37 58.8 °F 56.8 °F 30.3 in Calm     93 % 0 in
08:42 59 °F 57 °F 30.3 in Calm     93 % 0 in
08:47 59 °F 57 °F 30.3 in Calm     93 % 0 in
08:52 59.4 °F 57.6 °F 30.3 in Calm     94 % 0 in
08:57 59.4 °F 57.4 °F 30.3 in Calm     93 % 0 in
09:02 59.5 °F 57.6 °F 30.3 in Calm     93 % 0 in
09:07 59.9 °F 57.9 °F 30.3 in Calm     93 % 0 in
09:12 60.4 °F 58.6 °F 30.3 in Calm     94 % 0 in
09:17 60.8 °F 59.2 °F 30.3 in Calm     94 % 0 in
09:22 60.8 °F 59.2 °F 30.3 in SW 1.2 mph   94 % 0 in
09:27 60.4 °F 58.5 °F 30.3 in SW 2.3 mph 2.3 mph 93 % 0 in
09:32 60.6 °F 58.6 °F 30.3 in Calm     93 % 0 in
09:37 60.6 °F 58.3 °F 30.3 in SSW 1.6 mph   92 % 0 in
09:42 61 °F 58.8 °F 30.4 in SSE 1.2 mph 1.2 mph 93 % 0 in
09:47 61.2 °F 58.8 °F 30.4 in SW 1.2 mph   92 % 0 in
09:52 62.2 °F 60.3 °F 30.4 in South 2.3 mph 2.3 mph 93 % 0 in
09:57 62.8 °F 60.1 °F 30.4 in SW 2.4 mph   91 % 0 in
10:02 62.6 °F 59.5 °F 30.4 in SW 2.3 mph   90 % 0 in
10:07 64 °F 61.3 °F 30.4 in Calm     91 % 0 in
10:12 64.4 °F 61.2 °F 30.4 in NNE 1.4 mph   89 % 0 in
10:17 64.8 °F 60.8 °F 30.4 in ENE 2.4 mph 2.4 mph 87 % 0 in
10:22 65.1 °F 60.8 °F 30.4 in NNE 3.1 mph 3.1 mph 86 % 0 in
10:27 66 °F 61.3 °F 30.4 in Calm     85 % 0 in
10:29 66.6 °F 61.9 °F 30.4 in East 1.6 mph 1.6 mph 85 % 0 in
10:34 67.5 °F 62.1 °F 30.4 in NNE 1.2 mph   83 % 0 in
10:39 67.8 °F 62.1 °F 30.4 in NNE 1.2 mph   82 % 0 in
10:44 68.4 °F 62.2 °F 30.4 in ENE 2.3 mph 2.3 mph 81 % 0 in
10:49 68.4 °F 61.9 °F 30.4 in NNE 2.3 mph 2.3 mph 80 % 0 in
10:54 67.8 °F 60.3 °F 30.4 in NNE 3.5 mph 3.5 mph 77 % 0 in
10:59 68 °F 61 °F 30.4 in NE 2.3 mph 2.3 mph 78 % 0 in
11:04 68.9 °F 61.3 °F 30.4 in NNE 2.6 mph 2.6 mph 77 % 0 in
11:09 69.4 °F 61.9 °F 30.4 in NNE 4.6 mph 4.6 mph 77 % 0 in
11:14 69.8 °F 61.5 °F 30.4 in ENE 2.3 mph 2.6 mph 75 % 0 in
11:19 70.2 °F 61.5 °F 30.4 in ENE 2.6 mph 2.6 mph 74 % 0 in
11:24 69.8 °F 60.8 °F 30.4 in NNE 3.5 mph 3.5 mph 73 % 0 in
11:29 70.5 °F 61.9 °F 30.4 in NE 2.4 mph 2.4 mph 74 % 0 in
11:34 71.1 °F 62.4 °F 30.4 in SW 3.5 mph 3.5 mph 74 % 0 in
11:39 71.6 °F 62.4 °F 30.4 in NNE 4.6 mph 4.6 mph 73 % 0 in
11:44 70.7 °F 61.2 °F 30.4 in NE 4.6 mph 4.6 mph 72 % 0 in
11:49 70.9 °F 61.3 °F 30.4 in ENE 2.3 mph 2.3 mph 72 % 0 in
11:54 72.5 °F 62.6 °F 30.4 in SSE 2.3 mph 2.3 mph 71 % 0 in
11:59 72.1 °F 61.9 °F 30.4 in WNW 2.3 mph 2.3 mph 70 % 0 in
12:04 71.4 °F 60.6 °F 30.4 in ESE 5.8 mph 5.8 mph 69 % 0 in
12:09 72 °F 61.2 °F 30.4 in ENE 3.5 mph 3.5 mph 69 % 0 in
12:14 72.7 °F 61.2 °F 30.3 in SSE 3.5 mph 3.5 mph 67 % 0 in
12:19 72.7 °F 61.2 °F 30.3 in ESE 4.6 mph 4.6 mph 67 % 0 in
12:24 73.2 °F 61.5 °F 30.3 in South 3.5 mph 3.5 mph 67 % 0 in
12:29 73.8 °F 60.8 °F 30.4 in SSE 5.8 mph 5.8 mph 64 % 0 in
12:34 73 °F 60.6 °F 30.4 in NE 3.5 mph 3.5 mph 65 % 0 in
12:39 73.8 °F 60.8 °F 30.4 in ESE 2.3 mph 2.3 mph 64 % 0 in
12:44 74.5 °F 61.2 °F 30.3 in ESE 3.5 mph 3.5 mph 63 % 0 in
12:49 73.4 °F 59.5 °F 30.3 in ENE 4.6 mph 4.6 mph 62 % 0 in
12:54 73 °F 60.1 °F 30.3 in ENE 2.3 mph 2.3 mph 64 % 0 in
12:59 74.3 °F 61 °F 30.3 in SSE 3.5 mph 3.5 mph 63 % 0 in
13:04 73.6 °F 60.3 °F 30.3 in East 3.5 mph 3.5 mph 63 % 0 in
13:09 73 °F 59.7 °F 30.3 in ESE 3.5 mph 3.5 mph 63 % 0 in
13:14 73.4 °F 60.1 °F 30.3 in Calm     63 % 0 in
13:19 73.6 °F 60.3 °F 30.3 in ESE 2.9 mph   63 % 0 in
13:24 73.8 °F 59.9 °F 30.3 in South 3.5 mph 3.5 mph 62 % 0 in
13:29 73 °F 59.7 °F 30.3 in South 3.5 mph 3.5 mph 63 % 0 in
13:34 73 °F 60.1 °F 30.3 in ENE 1.2 mph 1.4 mph 64 % 0 in
13:39 73 °F 59.2 °F 30.3 in SSE 2.3 mph 2.3 mph 62 % 0 in
13:44 73.4 °F 59.5 °F 30.3 in East 3.8 mph 3.8 mph 62 % 0 in
13:49 73.2 °F 59.4 °F 30.3 in ESE 3.5 mph 3.5 mph 62 % 0 in
13:54 73.6 °F 59.7 °F 30.3 in ESE 3.1 mph 3.1 mph 62 % 0 in
13:59 75.2 °F 61.3 °F 30.3 in WSW 4.6 mph 4.6 mph 62 % 0 in
14:04 75.2 °F 59.9 °F 30.3 in East 4.6 mph 4.6 mph 59 % 0 in
14:09 74.7 °F 60.3 °F 30.3 in East 2.9 mph 2.9 mph 61 % 0 in
14:14 75 °F 60.3 °F 30.3 in ESE 3.6 mph 3.6 mph 60 % 0 in
14:19 75.4 °F 60.1 °F 30.3 in SW 1.6 mph   59 % 0 in
14:24 75.4 °F 60.1 °F 30.3 in SSW 4.6 mph 4.6 mph 59 % 0 in
14:29 76.1 °F 59.7 °F 30.3 in South 4.6 mph 4.6 mph 57 % 0 in
14:34 76.5 °F 60.1 °F 30.3 in West 3.1 mph 3.1 mph 57 % 0 in
14:39 75.9 °F 59.5 °F 30.3 in ESE 4.5 mph 4.5 mph 57 % 0 in
14:44 75.7 °F 59.4 °F 30.3 in ESE 4.9 mph 4.9 mph 57 % 0 in
14:49 75.4 °F 58.6 °F 30.3 in WSW 4.6 mph 4.6 mph 56 % 0 in
14:54 75.2 °F 58.8 °F 30.3 in SE 3.5 mph 3.5 mph 57 % 0 in
14:59 75.7 °F 59.4 °F 30.3 in South 3.5 mph 3.5 mph 57 % 0 in
15:04 77 °F 60.6 °F 30.3 in West 3.5 mph 3.5 mph 57 % 0 in
15:09 77.2 °F 59.7 °F 30.3 in SE 4.6 mph 4.6 mph 55 % 0 in
15:14 77 °F 59.5 °F 30.3 in SE 4.9 mph 4.9 mph 55 % 0 in
15:19 76.3 °F 58.8 °F 30.3 in ESE 7.1 mph 7.1 mph 55 % 0 in
15:24 75.6 °F 58.8 °F 30.3 in SE 6.7 mph 6.7 mph 56 % 0 in
15:29 75.6 °F 58.8 °F 30.3 in WSW 3.5 mph 3.5 mph 56 % 0 in
15:34 75.7 °F 58.8 °F 30.3 in SE 6.9 mph 6.9 mph 56 % 0 in
15:39 75.4 °F 58.1 °F 30.3 in SE 8.5 mph 8.5 mph 55 % 0 in
15:44 75 °F 58.3 °F 30.3 in East 6.9 mph 6.9 mph 56 % 0 in
15:49 75 °F 58.3 °F 30.3 in ESE 8.1 mph 8.1 mph 56 % 0 in
15:54 74.8 °F 58.1 °F 30.3 in East 9.2 mph 9.2 mph 56 % 0 in
15:59 74.5 °F 57.7 °F 30.3 in East 8.1 mph 8.1 mph 56 % 0 in
16:04 74.3 °F 58.1 °F 30.3 in SE 7.6 mph 7.6 mph 57 % 0 in
16:09 73.9 °F 57.7 °F 30.3 in East 4.6 mph 4.6 mph 57 % 0 in
16:14 73.8 °F 57.6 °F 30.2 in SE 9.2 mph 9.2 mph 57 % 0 in
16:19 73.6 °F 57.4 °F 30.2 in ESE 6.9 mph 6.9 mph 57 % 0 in
16:24 73.4 °F 57.7 °F 30.2 in ESE 5.8 mph 5.8 mph 58 % 0 in
16:29 73.4 °F 57.7 °F 30.3 in SE 5.8 mph 5.8 mph 58 % 0 in
16:34 73.2 °F 57.6 °F 30.3 in ESE 6.9 mph 6.9 mph 58 % 0 in
16:39 72.9 °F 57.2 °F 30.3 in East 8.1 mph 8.1 mph 58 % 0 in
16:44 72.9 °F 57.7 °F 30.2 in ENE 8.1 mph 8.1 mph 59 % 0 in
16:49 72.9 °F 57.7 °F 30.2 in SE 6.9 mph 6.9 mph 59 % 0 in
16:54 72.9 °F 57.7 °F 30.2 in ESE 7.1 mph 7.1 mph 59 % 0 in
16:59 73.2 °F 57.9 °F 30.2 in East 6.9 mph 6.9 mph 59 % 0 in
17:04 73.4 °F 58.3 °F 30.2 in ESE 6.9 mph 6.9 mph 59 % 0 in
17:09 73 °F 57.9 °F 30.2 in East 8.1 mph 8.1 mph 59 % 0 in
17:14 73 °F 57.4 °F 30.2 in SSE 9.2 mph 9.2 mph 58 % 0 in
17:19 72.9 °F 57.2 °F 30.2 in ESE 6.9 mph 6.9 mph 58 % 0 in
17:24 73 °F 57.4 °F 30.2 in SSE 8.1 mph 8.1 mph 58 % 0 in
17:29 73 °F 57.4 °F 30.2 in ENE 7.1 mph 7.1 mph 58 % 0 in
17:34 72.9 °F 57.2 °F 30.2 in SE 8.1 mph 8.1 mph 58 % 0 in
17:39 72.7 °F 57 °F 30.2 in SE 6.9 mph 6.9 mph 58 % 0 in
17:44 72.5 °F 56.8 °F 30.3 in ESE 7.4 mph 7.4 mph 58 % 0 in
17:49 72.5 °F 56.8 °F 30.3 in East 8.1 mph 8.1 mph 58 % 0 in
17:54 72.5 °F 56.8 °F 30.3 in ESE 5.8 mph 5.8 mph 58 % 0 in
17:59 72.7 °F 57 °F 30.2 in ESE 3.5 mph 3.5 mph 58 % 0 in
18:04 73 °F 57.9 °F 30.2 in West 3.8 mph 3.8 mph 59 % 0 in
18:09 73 °F 57.4 °F 30.2 in SSE 4.6 mph 4.6 mph 58 % 0 in
18:14 72.7 °F 57 °F 30.2 in South 3.5 mph 3.5 mph 58 % 0 in
18:19 72.5 °F 56.8 °F 30.2 in South 4.6 mph 4.6 mph 58 % 0 in
18:24 72.3 °F 56.7 °F 30.2 in East 2.4 mph 2.4 mph 58 % 0 in
18:29 72 °F 56.5 °F 30.2 in ESE 6.4 mph 6.4 mph 58 % 0 in
18:34 71.8 °F 56.1 °F 30.2 in SSE 4.6 mph 4.6 mph 58 % 0 in
18:39 71.4 °F 56.3 °F 30.2 in ESE 5.8 mph 5.8 mph 59 % 0 in
18:44 71.1 °F 56.5 °F 30.3 in ESE 2.3 mph 2.3 mph 60 % 0 in
18:49 70.7 °F 56.1 °F 30.3 in SSE 4.6 mph 4.6 mph 60 % 0 in
18:54 70.5 °F 55.9 °F 30.3 in ESE 4.7 mph 4.7 mph 60 % 0 in
18:59 70.2 °F 56.1 °F 30.3 in SE 3.8 mph 3.8 mph 61 % 0 in
19:04 70 °F 55.9 °F 30.3 in South 3.5 mph   61 % 0 in
19:09 69.8 °F 55.8 °F 30.3 in Calm     61 % 0 in
19:14 69.4 °F 55.9 °F 30.3 in Calm     62 % 0 in
19:19 69.3 °F 55.8 °F 30.3 in SSE 2.3 mph   62 % 0 in
19:24 68.9 °F 55.8 °F 30.3 in SSE 2.3 mph 2.3 mph 63 % 0 in
19:29 68.7 °F 55.6 °F 30.3 in Calm     63 % 0 in
19:34 68.5 °F 55.4 °F 30.3 in SW 1.2 mph 1.2 mph 63 % 0 in
19:39 68.4 °F 55.8 °F 30.3 in Calm     64 % 0 in
19:44 68 °F 55.4 °F 30.3 in Calm     64 % 0 in
19:49 67.8 °F 55.6 °F 30.3 in SW 1.2 mph 1.2 mph 65 % 0 in
19:54 67.6 °F 55.6 °F 30.3 in SW 1.2 mph   65 % 0 in
19:59 67.5 °F 55.8 °F 30.3 in WSW 2.4 mph 2.4 mph 66 % 0 in
20:04 67.1 °F 55.4 °F 30.3 in WSW 1.6 mph 1.6 mph 66 % 0 in
20:05 62.1 °F 54.9 °F 30.3 in Calm     77 % 0 in
20:09 66.9 °F 55.2 °F 30.3 in Calm   0.9 mph 66 % 0 in
20:14 66.7 °F 55 °F 30.3 in SW 1.2 mph   66 % 0 in
20:15 61.9 °F 54.9 °F 30.3 in Calm     78 % 0 in
20:19 66.7 °F 55.4 °F 30.3 in Calm     67 % 0 in
20:24 66.6 °F 55.2 °F 30.3 in Calm     67 % 0 in
20:25 61.5 °F 54.7 °F 30.3 in Calm     78 % 0 in
20:29 66.2 °F 54.9 °F 30.3 in Calm     67 % 0 in
20:34 66.2 °F 55.2 °F 30.3 in Calm     68 % 0 in
20:35 61.3 °F 54.9 °F 30.3 in Calm     79 % 0 in
20:39 66 °F 55.6 °F 30.3 in Calm     69 % 0 in
20:44 65.8 °F 55.4 °F 30.3 in Calm     69 % 0 in
20:45 61.2 °F 54.7 °F 30.3 in Calm     79 % 0 in
20:49 65.8 °F 55.4 °F 30.3 in Calm     69 % 0 in
20:54 65.8 °F 55.4 °F 30.3 in Calm     69 % 0 in
20:55 61 °F 54.3 °F 30.3 in Calm     79 % 0 in
20:59 65.8 °F 55.8 °F 30.3 in Calm     70 % 0 in
21:04 65.8 °F 55.8 °F 30.3 in WSW 1.2 mph   70 % 0 in
21:05 60.8 °F 54.1 °F 30.3 in Calm     79 % 0 in
21:09 65.8 °F 55.8 °F 30.3 in WSW 1.4 mph   70 % 0 in
21:14 66 °F 55.9 °F 30.3 in Calm     70 % 0 in
21:15 60.6 °F 54.3 °F 30.3 in Calm     80 % 0 in
21:19 65.8 °F 55.8 °F 30.3 in Calm     70 % 0 in
21:24 65.8 °F 55.8 °F 30.3 in Calm     70 % 0 in
21:25 60.3 °F 54.1 °F 30.3 in Calm     80 % 0 in
21:29 65.8 °F 55.8 °F 30.3 in Calm     70 % 0 in
21:34 65.8 °F 56.1 °F 30.3 in Calm     71 % 0 in
21:35 60.1 °F 54 °F 30.3 in Calm   2 mph 80 % 0 in
21:39 65.8 °F 56.1 °F 30.3 in WSW 1.2 mph   71 % 0 in
21:44 65.8 °F 56.1 °F 30.3 in Calm     71 % 0 in
21:45 60.1 °F 54.1 °F 30.3 in Calm     81 % 0 in
21:49 65.8 °F 56.1 °F 30.3 in Calm     71 % 0 in
21:54 65.8 °F 56.1 °F 30.3 in Calm     71 % 0 in
21:55 60.1 °F 54 °F 30.3 in East 1 mph 1 mph 80 % 0 in
21:59 65.8 °F 56.1 °F 30.3 in Calm     71 % 0 in
22:00 65.8 °F 56.1 °F 30.3 in Calm     71 % 0 in
22:05 65.8 °F 56.1 °F 30.3 in Calm     71 % 0 in
22:10 65.8 °F 56.1 °F 30.3 in Calm     71 % 0 in
22:15 65.8 °F 56.1 °F 30.3 in Calm     71 % 0 in
22:20 65.8 °F 56.1 °F 30.3 in WSW 2.3 mph 2.3 mph 71 % 0 in
22:25 66 °F 56.3 °F 30.3 in Calm     71 % 0 in
22:30 66 °F 56.3 °F 30.3 in Calm     71 % 0 in
22:35 65.8 °F 56.1 °F 30.3 in Calm     71 % 0 in
22:40 65.8 °F 56.1 °F 30.3 in WSW 1.2 mph 1.2 mph 71 % 0 in
22:45 65.7 °F 56.5 °F 30.3 in WSW 1.2 mph   72 % 0 in
22:50 65.5 °F 56.1 °F 30.3 in Calm   1 mph 72 % 0 in
22:55 65.3 °F 55.9 °F 30.3 in Calm     72 % 0 in
23:00 65.1 °F 55.9 °F 30.3 in Calm     72 % 0 in
23:05 64.9 °F 55.8 °F 30.3 in Calm     72 % 0 in
23:10 64.8 °F 55.6 °F 30.3 in WSW 2 mph   72 % 0 in
23:15 64.2 °F 55 °F 30.3 in WSW 2 mph 2 mph 72 % 0 in
23:20 63.9 °F 55 °F 30.3 in WSW 1.4 mph 1.4 mph 73 % 0 in
23:25 63.7 °F 54.9 °F 30.3 in WSW 1 mph 2 mph 73 % 0 in
23:30 63.7 °F 54.9 °F 30.3 in Calm   2 mph 73 % 0 in
23:35 63.7 °F 55.2 °F 30.3 in Calm     74 % 0 in
23:40 63.7 °F 55.2 °F 30.3 in Calm     74 % 0 in
23:45 63.5 °F 55 °F 30.3 in Calm     74 % 0 in
23:50 63.1 °F 54.7 °F 30.3 in WSW 1.2 mph 1.2 mph 74 % 0 in
23:55 63.1 °F 55 °F 30.3 in Calm     75 % 0 in
Meteo Sesrovires
Elogis d' Weather Underground - 4 mb

Guio original per  Jim McMurry - jmcmurry@mwt.net Adaptat per a la plantilla per  Wim van der Kuil - Leuven-Template.eu

Trobareu la nostra informacio del temps tambe a:

Weather Underground

AWEKAS